createdAt,value
2022-12-12T00:00:28.635Z,51.38
2022-12-12T00:01:52.673Z,38.63
2022-12-12T00:02:54.943Z,41.10
2022-12-12T00:03:57.869Z,46.28
2022-12-12T00:05:00.027Z,37.50
2022-12-12T00:06:04.890Z,41.15
2022-12-12T00:07:07.170Z,43.75
2022-12-12T00:08:09.360Z,46.17
2022-12-12T00:09:12.591Z,40.30
2022-12-12T00:10:14.755Z,38.70
2022-12-12T00:11:17.071Z,49.63
2022-12-12T00:12:19.290Z,37.95
2022-12-12T00:13:21.470Z,38.60
2022-12-12T00:14:23.611Z,52.80
2022-12-12T00:15:25.804Z,45.85
2022-12-12T00:16:28.239Z,48.90
2022-12-12T00:17:30.352Z,44.20
2022-12-12T00:18:32.576Z,46.90
2022-12-12T00:19:34.670Z,42.30
2022-12-12T00:20:36.893Z,44.83
2022-12-12T00:21:39.309Z,46.78
2022-12-12T00:22:41.494Z,48.85
2022-12-12T00:23:44.441Z,49.03
2022-12-12T00:24:46.625Z,49.88
2022-12-12T00:26:00.961Z,48.28
2022-12-12T00:27:03.279Z,50.30
2022-12-12T00:28:06.015Z,50.30
2022-12-12T00:29:08.200Z,38.80
2022-12-12T00:30:10.853Z,44.75
2022-12-12T00:31:13.725Z,44.80
2022-12-12T00:32:15.861Z,35.80
2022-12-12T00:33:18.364Z,48.40
2022-12-12T00:34:20.647Z,43.60
2022-12-12T00:35:22.728Z,47.72
2022-12-12T00:36:27.628Z,46.33
2022-12-12T00:37:29.736Z,51.78
2022-12-12T00:38:32.121Z,43.85
2022-12-12T00:39:34.504Z,52.20
2022-12-12T00:40:36.709Z,50.00
2022-12-12T00:41:38.813Z,44.72
2022-12-12T00:42:40.997Z,47.20
2022-12-12T00:43:43.416Z,44.53
2022-12-12T00:44:45.519Z,50.15
2022-12-12T00:45:47.641Z,48.60
2022-12-12T00:46:49.761Z,44.10
2022-12-12T00:47:51.976Z,52.28
2022-12-12T00:48:55.900Z,55.28
2022-12-12T00:49:58.037Z,43.67
2022-12-12T00:51:09.425Z,50.28
2022-12-12T00:52:11.570Z,53.25
2022-12-12T00:53:14.848Z,50.47
2022-12-12T00:54:17.041Z,51.72
2022-12-12T00:55:19.493Z,45.25
2022-12-12T00:56:22.942Z,43.40
2022-12-12T00:57:25.029Z,52.13
2022-12-12T00:58:27.332Z,54.28
2022-12-12T00:59:29.448Z,48.97
2022-12-12T01:00:32.582Z,49.38
2022-12-12T01:01:35.973Z,49.33
2022-12-12T01:02:38.229Z,46.97
2022-12-12T01:03:42.160Z,54.10
2022-12-12T01:04:44.255Z,49.50
2022-12-12T01:05:46.810Z,45.80
2022-12-12T01:06:48.923Z,44.45
2022-12-12T01:07:51.152Z,55.08
2022-12-12T01:08:54.478Z,53.53
2022-12-12T01:09:56.630Z,47.22
2022-12-12T01:10:59.312Z,45.08
2022-12-12T01:12:01.720Z,45.88
2022-12-12T01:13:04.337Z,60.97
2022-12-12T01:14:06.585Z,51.70
2022-12-12T01:15:10.380Z,47.10
2022-12-12T01:16:13.297Z,46.58
2022-12-12T01:17:15.471Z,53.38
2022-12-12T01:18:18.318Z,48.10
2022-12-12T01:19:20.396Z,56.83
2022-12-12T01:20:26.205Z,56.05
2022-12-12T01:21:28.425Z,60.50
2022-12-12T01:22:30.581Z,47.83
2022-12-12T01:23:32.681Z,54.78
2022-12-12T01:24:34.936Z,46.28
2022-12-12T01:25:37.157Z,47.70
2022-12-12T01:26:39.278Z,49.78
2022-12-12T01:27:41.593Z,55.88
2022-12-12T01:28:44.858Z,60.13
2022-12-12T01:29:46.943Z,58.50
2022-12-12T01:30:49.054Z,55.30
2022-12-12T01:31:51.297Z,52.55
2022-12-12T01:32:55.053Z,56.83
2022-12-12T01:33:57.186Z,51.17
2022-12-12T01:34:59.413Z,57.05
2022-12-12T01:36:01.536Z,61.60
2022-12-12T01:37:03.693Z,52.42
2022-12-12T01:38:05.818Z,41.30
2022-12-12T01:39:08.117Z,50.35
2022-12-12T01:40:17.649Z,49.05
2022-12-12T01:41:21.068Z,52.03
2022-12-12T01:42:23.191Z,57.20
2022-12-12T01:43:25.831Z,59.17
2022-12-12T01:44:41.693Z,49.67
2022-12-12T01:46:02.660Z,59.53
2022-12-12T01:47:04.952Z,43.40
2022-12-12T01:48:07.144Z,56.55
2022-12-12T01:49:22.803Z,52.88
2022-12-12T01:50:24.945Z,57.92
2022-12-12T01:51:28.181Z,44.85
2022-12-12T01:52:41.410Z,65.10
2022-12-12T01:53:45.030Z,44.85
2022-12-12T01:54:54.279Z,49.90
2022-12-12T01:55:58.599Z,52.20
2022-12-12T01:57:05.247Z,43.40
2022-12-12T01:58:07.441Z,60.10
2022-12-12T01:59:12.717Z,47.55
2022-12-12T02:00:15.548Z,49.08
2022-12-12T02:01:20.841Z,56.85
2022-12-12T02:02:23.021Z,55.50
2022-12-12T02:03:25.864Z,49.53
2022-12-12T02:04:28.712Z,47.15
2022-12-12T02:05:41.545Z,52.30
2022-12-12T02:06:43.931Z,54.72
2022-12-12T02:07:46.179Z,45.40
2022-12-12T02:08:49.965Z,54.83
2022-12-12T02:09:52.168Z,56.88
2022-12-12T02:10:54.388Z,55.65
2022-12-12T02:11:58.880Z,50.65
2022-12-12T02:13:08.280Z,54.30
2022-12-12T02:14:11.258Z,48.03
2022-12-12T02:15:14.475Z,48.30
2022-12-12T02:16:25.848Z,46.58
2022-12-12T02:18:03.330Z,51.00
2022-12-12T02:19:44.017Z,42.95
2022-12-12T02:21:07.510Z,41.40
2022-12-12T02:22:18.913Z,45.20
2022-12-12T02:23:58.520Z,41.17
2022-12-12T02:25:18.633Z,52.05
2022-12-12T02:26:49.859Z,45.15
2022-12-12T02:28:13.073Z,47.63
2022-12-12T02:29:37.032Z,45.10
2022-12-12T02:30:49.507Z,48.00
2022-12-12T02:32:06.649Z,54.67
2022-12-12T02:33:28.961Z,51.90
2022-12-12T02:35:03.916Z,44.97
2022-12-12T02:36:14.898Z,46.28
2022-12-12T02:37:22.730Z,51.72
2022-12-12T02:38:34.472Z,52.10
2022-12-12T02:40:04.814Z,43.25
2022-12-12T02:41:45.848Z,49.35
2022-12-12T02:43:15.506Z,48.85
2022-12-12T02:44:29.951Z,39.10
2022-12-12T02:45:47.717Z,47.70
2022-12-12T02:47:21.348Z,49.35
2022-12-12T02:48:38.963Z,44.28
2022-12-12T02:49:49.681Z,41.40
2022-12-12T02:51:58.266Z,41.05
2022-12-12T02:53:00.693Z,51.75
2022-12-12T02:54:13.925Z,45.33
2022-12-12T02:55:17.612Z,42.97
2022-12-12T02:56:51.744Z,51.03
2022-12-12T02:57:55.328Z,40.55
2022-12-12T02:58:58.286Z,44.85
2022-12-12T03:00:10.097Z,49.20
2022-12-12T03:01:15.067Z,45.40
2022-12-12T03:02:23.040Z,43.17
2022-12-12T03:04:05.141Z,44.55
2022-12-12T03:05:31.722Z,53.63
2022-12-12T03:07:01.307Z,39.70
2022-12-12T03:08:26.470Z,45.55
2022-12-12T03:09:54.598Z,40.70
2022-12-12T03:11:12.812Z,38.08
2022-12-12T03:12:25.949Z,38.65
2022-12-12T03:13:50.874Z,35.85
2022-12-12T03:15:10.317Z,39.08
2022-12-12T03:16:38.573Z,37.17
2022-12-12T03:18:00.209Z,46.08
2022-12-12T03:19:43.871Z,39.78
2022-12-12T03:21:22.484Z,44.67
2022-12-12T03:22:27.638Z,37.08
2022-12-12T03:23:41.792Z,38.90
2022-12-12T03:24:55.975Z,40.95
2022-12-12T03:26:11.145Z,39.25
2022-12-12T03:27:32.732Z,40.38
2022-12-12T03:28:45.426Z,43.90
2022-12-12T03:29:56.684Z,45.53
2022-12-12T03:31:03.802Z,38.97
2022-12-12T03:32:17.495Z,46.72
2022-12-12T03:33:25.992Z,45.03
2022-12-12T03:34:36.108Z,41.15
2022-12-12T03:35:53.450Z,51.85
2022-12-12T03:37:04.304Z,43.78
2022-12-12T03:38:19.818Z,50.30
2022-12-12T03:39:37.254Z,42.60
2022-12-12T03:41:08.619Z,42.45
2022-12-12T03:42:30.629Z,51.85
2022-12-12T03:43:39.582Z,38.25
2022-12-12T03:44:49.671Z,47.28
2022-12-12T03:46:36.900Z,50.13
2022-12-12T03:47:50.347Z,40.25
2022-12-12T03:48:58.444Z,48.05
2022-12-12T03:50:15.637Z,51.55
2022-12-12T03:51:24.076Z,40.15
2022-12-12T03:52:33.751Z,46.30
2022-12-12T03:53:51.957Z,47.95
2022-12-12T03:55:04.635Z,48.97
2022-12-12T03:56:21.845Z,40.75
2022-12-12T03:57:36.665Z,48.17
2022-12-12T03:58:44.677Z,48.45
2022-12-12T03:59:54.405Z,43.92
2022-12-12T04:00:58.431Z,52.17
2022-12-12T04:02:15.941Z,52.65
2022-12-12T04:03:42.759Z,42.30
2022-12-12T04:05:15.661Z,41.63
2022-12-12T04:06:29.300Z,41.53
2022-12-12T04:07:38.377Z,40.55
2022-12-12T04:09:00.534Z,51.92
2022-12-12T04:10:21.496Z,54.00
2022-12-12T04:13:03.401Z,43.13
2022-12-12T04:14:27.349Z,41.63
2022-12-12T04:15:35.264Z,38.33
2022-12-12T04:16:42.584Z,42.60
2022-12-12T04:18:03.278Z,38.40
2022-12-12T04:19:13.596Z,39.38
2022-12-12T04:20:47.553Z,44.20
2022-12-12T04:22:16.714Z,44.17
2022-12-12T04:23:46.298Z,43.28
2022-12-12T04:25:03.415Z,41.38
2022-12-12T04:26:40.622Z,45.10
2022-12-12T04:27:51.224Z,44.20
2022-12-12T04:29:06.911Z,52.25
2022-12-12T04:30:12.128Z,39.28
2022-12-12T04:31:17.575Z,47.92
2022-12-12T04:32:25.538Z,43.08
2022-12-12T04:33:36.651Z,49.88
2022-12-12T04:34:42.457Z,50.50
2022-12-12T04:35:51.015Z,44.42
2022-12-12T04:36:53.600Z,57.03
2022-12-12T04:38:04.319Z,48.08
2022-12-12T04:39:09.452Z,47.95
2022-12-12T04:40:17.065Z,46.33
2022-12-12T04:41:21.199Z,54.38
2022-12-12T04:42:27.463Z,47.30
2022-12-12T04:43:33.576Z,54.53
2022-12-12T04:44:40.149Z,39.78
2022-12-12T04:45:46.201Z,45.13
2022-12-12T04:46:52.562Z,48.10
2022-12-12T04:47:56.774Z,47.72
2022-12-12T04:49:20.067Z,47.33
2022-12-12T04:50:25.549Z,51.50
2022-12-12T04:51:34.667Z,48.90
2022-12-12T04:52:39.288Z,52.47
2022-12-12T04:53:48.740Z,46.50
2022-12-12T04:55:12.634Z,39.97
2022-12-12T04:56:19.581Z,48.22
2022-12-12T04:57:30.179Z,53.63
2022-12-12T04:58:32.311Z,44.45
2022-12-12T04:59:35.397Z,43.17
2022-12-12T05:00:53.180Z,51.60
2022-12-12T05:02:02.955Z,45.30
2022-12-12T05:03:18.653Z,49.45
2022-12-12T05:04:31.197Z,42.70
2022-12-12T05:05:43.727Z,44.00
2022-12-12T05:06:55.761Z,50.22
2022-12-12T05:08:06.403Z,39.05
2022-12-12T05:09:08.739Z,46.00
2022-12-12T05:10:14.323Z,42.42
2022-12-12T05:11:19.049Z,40.58
2022-12-12T05:12:21.854Z,42.35
2022-12-12T05:13:28.093Z,37.35
2022-12-12T05:14:31.404Z,42.85
2022-12-12T05:15:33.555Z,49.80
2022-12-12T05:16:43.498Z,45.92
2022-12-12T05:17:48.855Z,45.25
2022-12-12T05:18:51.168Z,40.72
2022-12-12T05:19:53.331Z,44.65
2022-12-12T05:20:55.417Z,46.53
2022-12-12T05:21:57.535Z,54.60
2022-12-12T05:22:59.674Z,37.28
2022-12-12T05:24:01.767Z,42.85
2022-12-12T05:25:04.269Z,41.72
2022-12-12T05:26:16.449Z,47.47
2022-12-12T05:27:18.771Z,35.47
2022-12-12T05:28:20.868Z,40.88
2022-12-12T05:29:24.007Z,43.58
2022-12-12T05:30:26.290Z,43.30
2022-12-12T05:31:28.592Z,37.95
2022-12-12T05:32:30.692Z,45.58
2022-12-12T05:33:33.127Z,43.63
2022-12-12T05:34:35.240Z,43.67
2022-12-12T05:35:37.510Z,45.22
2022-12-12T05:36:39.638Z,42.10
2022-12-12T05:37:46.636Z,40.22
2022-12-12T05:38:52.155Z,42.97
2022-12-12T05:39:54.251Z,34.50
2022-12-12T05:40:56.416Z,37.35
2022-12-12T05:41:58.869Z,44.80
2022-12-12T05:43:01.013Z,45.92
2022-12-12T05:44:03.218Z,43.15
2022-12-12T05:45:07.361Z,44.80
2022-12-12T05:46:09.583Z,46.15
2022-12-12T05:47:11.732Z,42.72
2022-12-12T05:48:14.080Z,38.58
2022-12-12T05:49:16.172Z,41.67
2022-12-12T05:50:18.532Z,41.78
2022-12-12T05:51:21.778Z,42.20
2022-12-12T05:52:24.018Z,36.90
2022-12-12T05:53:26.121Z,40.78
2022-12-12T05:54:28.232Z,34.75
2022-12-12T05:55:30.416Z,38.20
2022-12-12T05:56:32.681Z,43.80
2022-12-12T05:57:34.914Z,40.47
2022-12-12T05:58:37.332Z,35.97
2022-12-12T05:59:39.433Z,31.98
2022-12-12T06:00:41.561Z,45.17
2022-12-12T06:01:43.700Z,41.22
2022-12-12T06:02:46.033Z,39.05
2022-12-12T06:03:48.260Z,43.85
2022-12-12T06:04:50.462Z,44.05
2022-12-12T06:05:52.595Z,37.22
2022-12-12T06:06:54.709Z,52.38
2022-12-12T06:07:56.867Z,37.70
2022-12-12T06:08:59.192Z,44.33
2022-12-12T06:10:01.403Z,37.03
2022-12-12T06:11:07.090Z,50.20
2022-12-12T06:12:09.284Z,43.22
2022-12-12T06:13:11.749Z,46.53
2022-12-12T06:14:13.889Z,41.95
2022-12-12T06:15:16.108Z,41.55
2022-12-12T06:16:20.149Z,44.17
2022-12-12T06:17:22.285Z,39.05
2022-12-12T06:18:24.388Z,49.25
2022-12-12T06:19:26.511Z,36.25
2022-12-12T06:20:30.586Z,43.65
2022-12-12T06:21:32.873Z,42.85
2022-12-12T06:22:36.170Z,35.78
2022-12-12T06:23:42.851Z,39.42
2022-12-12T06:24:44.982Z,39.60
2022-12-12T06:25:50.702Z,38.00
2022-12-12T06:26:53.197Z,45.22
2022-12-12T06:27:55.343Z,44.20
2022-12-12T06:28:57.426Z,36.85
2022-12-12T06:29:59.579Z,45.10
2022-12-12T06:31:03.563Z,38.55
2022-12-12T06:32:07.740Z,35.88
2022-12-12T06:33:09.847Z,37.78
2022-12-12T06:34:11.975Z,39.10
2022-12-12T06:35:14.390Z,48.05
2022-12-12T06:36:24.120Z,41.90
2022-12-12T06:37:26.335Z,43.55
2022-12-12T06:38:29.806Z,43.08
2022-12-12T06:39:31.880Z,38.13
2022-12-12T06:40:34.022Z,36.38
2022-12-12T06:41:36.507Z,41.78
2022-12-12T06:42:40.865Z,45.28
2022-12-12T06:43:47.140Z,49.28
2022-12-12T06:44:49.227Z,39.17
2022-12-12T06:45:51.518Z,53.30
2022-12-12T06:46:53.631Z,47.90
2022-12-12T06:47:55.712Z,48.05
2022-12-12T06:48:58.788Z,40.65
2022-12-12T06:50:00.894Z,46.75
2022-12-12T06:51:07.715Z,45.28
2022-12-12T06:52:09.837Z,40.75
2022-12-12T06:53:12.730Z,42.42
2022-12-12T06:54:17.672Z,43.15
2022-12-12T06:55:19.780Z,37.58
2022-12-12T06:56:24.350Z,49.08
2022-12-12T06:57:26.941Z,47.08
2022-12-12T06:58:29.181Z,40.83
2022-12-12T06:59:31.337Z,48.03
2022-12-12T07:00:33.455Z,43.45
2022-12-12T07:01:35.619Z,36.72
2022-12-12T07:02:37.757Z,44.58
2022-12-12T07:03:40.501Z,37.78
2022-12-12T07:04:42.564Z,37.47
2022-12-12T07:05:46.173Z,31.88
2022-12-12T07:06:48.264Z,36.15
2022-12-12T07:07:50.452Z,43.13
2022-12-12T07:08:53.060Z,39.78
2022-12-12T07:09:55.557Z,34.10
2022-12-12T07:11:04.052Z,40.85
2022-12-12T07:12:06.254Z,51.60
2022-12-12T07:13:08.431Z,37.00
2022-12-12T07:14:10.903Z,37.42
2022-12-12T07:15:13.625Z,38.30
2022-12-12T07:16:16.481Z,40.50
2022-12-12T07:17:18.680Z,43.58
2022-12-12T07:18:20.766Z,43.20
2022-12-12T07:19:23.098Z,39.45
2022-12-12T07:20:25.450Z,40.55
2022-12-12T07:21:27.632Z,43.55
2022-12-12T07:22:29.950Z,42.20
2022-12-12T07:23:32.441Z,39.15
2022-12-12T07:24:34.624Z,43.25
2022-12-12T07:25:42.169Z,42.72
2022-12-12T07:26:44.244Z,44.03
2022-12-12T07:27:46.316Z,36.65
2022-12-12T07:28:49.782Z,38.63
2022-12-12T07:29:51.950Z,41.92
2022-12-12T07:30:54.133Z,34.65
2022-12-12T07:31:56.477Z,40.80
2022-12-12T07:32:58.683Z,42.85
2022-12-12T07:34:00.771Z,42.50
2022-12-12T07:35:03.305Z,43.03
2022-12-12T07:36:05.931Z,37.45
2022-12-12T07:37:08.038Z,43.10
2022-12-12T07:38:11.209Z,47.88
2022-12-12T07:39:20.111Z,50.35
2022-12-12T07:40:23.541Z,46.08
2022-12-12T07:41:25.660Z,39.13
2022-12-12T07:42:27.774Z,42.72
2022-12-12T07:43:32.952Z,39.50
2022-12-12T07:44:36.201Z,50.40
2022-12-12T07:45:38.317Z,46.45
2022-12-12T07:46:40.473Z,43.60
2022-12-12T07:47:42.777Z,53.15
2022-12-12T07:48:45.028Z,42.05
2022-12-12T07:49:47.537Z,51.22
2022-12-12T07:50:50.201Z,40.22
2022-12-12T07:51:52.340Z,43.65
2022-12-12T07:52:54.543Z,52.95
2022-12-12T07:53:57.306Z,54.28
2022-12-12T07:54:59.437Z,51.97
2022-12-12T07:56:05.349Z,47.95
2022-12-12T07:57:07.478Z,38.15
2022-12-12T07:58:09.556Z,45.13
2022-12-12T07:59:12.036Z,50.05
2022-12-12T08:00:14.676Z,57.03
2022-12-12T08:01:25.229Z,54.92
2022-12-12T08:02:27.466Z,53.05
2022-12-12T08:03:29.629Z,50.13
2022-12-12T08:04:32.595Z,54.05
2022-12-12T08:05:34.716Z,55.28
2022-12-12T08:06:36.886Z,61.53
2022-12-12T08:07:39.014Z,53.33
2022-12-12T08:08:42.027Z,54.75
2022-12-12T08:09:44.138Z,55.38
2022-12-12T08:10:46.234Z,54.38
2022-12-12T08:11:48.615Z,60.28
2022-12-12T08:12:51.376Z,56.00
2022-12-12T08:13:54.137Z,57.80
2022-12-12T08:14:56.768Z,54.20
2022-12-12T08:15:59.361Z,60.45
2022-12-12T08:17:01.930Z,58.50
2022-12-12T08:18:04.451Z,49.45
2022-12-12T08:19:06.970Z,64.32
2022-12-12T08:20:10.334Z,62.55
2022-12-12T08:21:17.654Z,65.38
2022-12-12T08:22:25.471Z,56.22
2022-12-12T08:23:27.975Z,62.53
2022-12-12T08:24:30.497Z,57.83
2022-12-12T08:25:34.217Z,60.70
2022-12-12T08:26:36.739Z,60.78
2022-12-12T08:27:39.020Z,70.70
2022-12-12T08:28:42.138Z,57.05
2022-12-12T08:29:44.663Z,66.10
2022-12-12T08:30:51.264Z,58.47
2022-12-12T08:31:54.111Z,54.85
2022-12-12T08:32:56.664Z,54.95
2022-12-12T08:34:00.753Z,54.97
2022-12-12T08:35:03.866Z,62.72
2022-12-12T08:36:16.343Z,60.78
2022-12-12T08:37:20.074Z,66.18
2022-12-12T08:38:22.593Z,62.35
2022-12-12T08:39:25.464Z,59.03
2022-12-12T08:40:27.988Z,56.42
2022-12-12T08:41:30.394Z,61.83
2022-12-12T08:42:33.267Z,67.28
2022-12-12T08:43:40.109Z,58.83
2022-12-12T08:44:42.632Z,58.67
2022-12-12T08:45:47.559Z,54.25
2022-12-12T08:46:50.588Z,55.25
2022-12-12T08:47:53.208Z,62.60
2022-12-12T08:48:56.794Z,65.70
2022-12-12T08:49:59.108Z,56.88
2022-12-12T08:51:01.831Z,47.38
2022-12-12T08:52:07.355Z,57.63
2022-12-12T08:53:09.754Z,57.58
2022-12-12T08:54:13.233Z,51.00
2022-12-12T08:55:15.885Z,44.75
2022-12-12T08:56:19.359Z,45.33
2022-12-12T08:57:25.916Z,54.80
2022-12-12T08:58:28.721Z,44.97
2022-12-12T08:59:31.239Z,46.10
2022-12-12T09:00:33.762Z,44.92
2022-12-12T09:01:36.516Z,54.30
2022-12-12T09:02:39.427Z,45.35
2022-12-12T09:03:42.052Z,53.60
2022-12-12T09:04:44.565Z,54.25
2022-12-12T09:05:47.732Z,51.95
2022-12-12T09:06:51.095Z,47.80
2022-12-12T09:07:54.495Z,44.97
2022-12-12T09:08:58.658Z,48.83
2022-12-12T09:10:01.898Z,47.40
2022-12-12T09:11:05.623Z,51.53
2022-12-12T09:12:09.103Z,50.97
2022-12-12T09:13:12.344Z,58.30
2022-12-12T09:14:15.588Z,52.75
2022-12-12T09:15:18.709Z,48.33
2022-12-12T09:16:23.602Z,54.72
2022-12-12T09:17:26.511Z,60.25
2022-12-12T09:18:29.394Z,54.67
2022-12-12T09:19:32.273Z,57.65
2022-12-12T09:20:34.917Z,52.63
2022-12-12T09:21:37.562Z,44.60
2022-12-12T09:22:40.201Z,53.05
2022-12-12T09:23:42.844Z,53.25
2022-12-12T09:24:45.694Z,53.58
2022-12-12T09:25:48.485Z,58.00
2022-12-12T09:26:51.485Z,54.38
2022-12-12T09:27:54.063Z,44.55
2022-12-12T09:28:56.651Z,40.28
2022-12-12T09:29:59.652Z,33.15
2022-12-12T09:31:05.807Z,42.35
2022-12-12T09:32:08.460Z,35.10
2022-12-12T09:33:12.182Z,45.78
2022-12-12T09:34:14.779Z,43.50
2022-12-12T09:35:17.419Z,34.75
2022-12-12T09:36:20.227Z,40.88
2022-12-12T09:37:22.828Z,37.13
2022-12-12T09:38:25.750Z,34.65
2022-12-12T09:39:28.630Z,35.95
2022-12-12T09:40:45.389Z,28.58
2022-12-12T09:41:48.559Z,35.28
2022-12-12T09:42:52.044Z,33.65
2022-12-12T09:44:06.551Z,32.45
2022-12-12T09:45:09.798Z,31.90
2022-12-12T09:46:25.287Z,39.38
2022-12-12T09:47:51.042Z,39.97
2022-12-12T09:49:02.323Z,31.48
2022-12-12T09:50:31.366Z,35.60
2022-12-12T09:51:35.717Z,28.88
2022-12-12T09:52:38.966Z,29.17
2022-12-12T09:53:45.684Z,29.27
2022-12-12T09:54:48.443Z,33.97
2022-12-12T09:56:21.662Z,35.55
2022-12-12T09:57:34.777Z,28.30
2022-12-12T09:58:56.986Z,32.85
2022-12-12T10:00:09.581Z,28.23
2022-12-12T10:01:19.556Z,36.20
2022-12-12T10:02:37.047Z,31.63
2022-12-12T10:04:11.393Z,29.92
2022-12-12T10:05:37.287Z,32.55
2022-12-12T10:07:14.978Z,28.98
2022-12-12T10:08:36.005Z,36.33
2022-12-12T10:11:07.653Z,27.38
2022-12-12T10:12:14.488Z,29.23
2022-12-12T10:13:27.938Z,32.17
2022-12-12T10:14:34.894Z,34.97
2022-12-12T10:15:41.867Z,28.20
2022-12-12T10:16:45.990Z,31.75
2022-12-12T10:17:49.056Z,26.23
2022-12-12T10:18:55.063Z,29.15
2022-12-12T10:20:08.503Z,30.58
2022-12-12T10:21:32.496Z,30.70
2022-12-12T10:22:43.539Z,32.03
2022-12-12T10:23:51.248Z,28.20
2022-12-12T10:25:00.478Z,29.35
2022-12-12T10:26:08.526Z,29.00
2022-12-12T10:27:13.307Z,35.75
2022-12-12T10:28:19.427Z,28.35
2022-12-12T10:29:26.273Z,26.38
2022-12-12T10:30:34.196Z,33.53
2022-12-12T10:32:15.120Z,30.15
2022-12-12T10:33:27.017Z,27.00
2022-12-12T10:34:41.650Z,30.55
2022-12-12T10:35:58.441Z,26.95
2022-12-12T10:37:18.963Z,30.38
2022-12-12T10:38:44.418Z,27.20
2022-12-12T10:40:22.446Z,30.42
2022-12-12T10:41:54.135Z,28.90
2022-12-12T10:43:01.812Z,24.85
2022-12-12T10:44:19.813Z,31.23
2022-12-12T10:45:52.668Z,32.50
2022-12-12T10:47:07.779Z,30.30
2022-12-12T10:48:11.420Z,26.27
2022-12-12T10:49:21.385Z,33.67
2022-12-12T10:50:41.187Z,35.85
2022-12-12T10:51:48.145Z,30.08
2022-12-12T10:52:51.510Z,30.85
2022-12-12T10:53:54.631Z,34.00
2022-12-12T10:54:59.911Z,27.10
2022-12-12T10:56:20.195Z,27.92
2022-12-12T10:57:28.474Z,32.78
2022-12-12T10:58:43.839Z,34.67
2022-12-12T10:59:53.144Z,29.27
2022-12-12T11:01:04.897Z,29.92
2022-12-12T11:02:28.122Z,25.83
2022-12-12T11:03:41.382Z,30.65
2022-12-12T11:04:46.368Z,30.10
2022-12-12T11:05:49.968Z,28.05
2022-12-12T11:06:55.630Z,29.17
2022-12-12T11:08:03.939Z,29.05
2022-12-12T11:09:10.381Z,29.25
2022-12-12T11:10:35.215Z,28.70
2022-12-12T11:11:38.458Z,31.75
2022-12-12T11:12:41.700Z,30.63
2022-12-12T11:13:49.620Z,28.40
2022-12-12T11:14:54.184Z,30.50
2022-12-12T11:16:07.576Z,30.98
2022-12-12T11:17:25.988Z,28.70
2022-12-12T11:18:30.430Z,28.10
2022-12-12T11:19:39.678Z,31.98
2022-12-12T11:20:48.315Z,27.88
2022-12-12T11:21:52.876Z,30.98
2022-12-12T11:22:57.317Z,29.83
2022-12-12T11:24:03.559Z,32.10
2022-12-12T11:25:07.401Z,31.55
2022-12-12T11:26:17.123Z,29.42
2022-12-12T11:27:31.044Z,32.33
2022-12-12T11:28:38.179Z,31.60
2022-12-12T11:29:40.706Z,30.23
2022-12-12T11:30:44.660Z,30.35
2022-12-12T11:31:47.291Z,32.70
2022-12-12T11:32:54.934Z,33.83
2022-12-12T11:34:06.510Z,33.33
2022-12-12T11:35:34.778Z,35.05
2022-12-12T11:36:40.946Z,32.58
2022-12-12T11:37:49.822Z,35.20
2022-12-12T11:38:56.187Z,32.50
2022-12-12T11:39:58.946Z,34.28
2022-12-12T11:41:05.024Z,32.80
2022-12-12T11:42:13.591Z,33.03
2022-12-12T11:43:29.907Z,33.13
2022-12-12T11:44:37.594Z,39.15
2022-12-12T11:45:40.196Z,30.45
2022-12-12T11:46:42.957Z,33.30
2022-12-12T11:47:47.321Z,31.88
2022-12-12T11:48:52.728Z,29.13
2022-12-12T11:50:00.191Z,28.15
2022-12-12T11:51:03.874Z,36.05
2022-12-12T11:52:31.236Z,29.70
2022-12-12T11:53:39.295Z,36.17
2022-12-12T11:54:41.799Z,31.88
2022-12-12T11:56:13.936Z,30.45
2022-12-12T11:57:45.764Z,31.95
2022-12-12T11:59:23.321Z,34.20
2022-12-12T12:00:35.699Z,37.03
2022-12-12T12:01:50.800Z,37.67
2022-12-12T12:03:27.685Z,40.97
2022-12-12T12:04:55.177Z,36.33
2022-12-12T12:06:15.896Z,35.85
2022-12-12T12:07:52.160Z,36.20
2022-12-12T12:09:24.410Z,33.08
2022-12-12T12:10:45.525Z,38.42
2022-12-12T12:12:15.286Z,31.98
2022-12-12T12:13:33.060Z,31.52
2022-12-12T12:14:53.332Z,35.88
2022-12-12T12:16:05.688Z,34.67
2022-12-12T12:17:26.570Z,40.65
2022-12-12T12:18:54.412Z,38.63
2022-12-12T12:20:18.419Z,33.17
2022-12-12T12:22:03.653Z,34.78
2022-12-12T12:23:22.997Z,41.53
2022-12-12T12:24:37.261Z,32.00
2022-12-12T12:25:42.422Z,33.15
2022-12-12T12:27:01.864Z,32.70
2022-12-12T12:28:43.624Z,37.97
2022-12-12T12:29:52.025Z,40.55
2022-12-12T12:31:12.472Z,42.33
2022-12-12T12:32:29.831Z,35.50
2022-12-12T12:33:58.992Z,36.30
2022-12-12T12:35:17.236Z,35.72
2022-12-12T12:36:45.799Z,36.30
2022-12-12T12:37:54.319Z,42.42
2022-12-12T12:39:20.603Z,38.00
2022-12-12T12:40:48.448Z,38.85
2022-12-12T12:41:59.725Z,33.67
2022-12-12T12:43:34.051Z,33.30
2022-12-12T12:44:55.419Z,33.80
2022-12-12T12:46:07.560Z,30.88
2022-12-12T12:47:52.790Z,38.88
2022-12-12T12:49:14.626Z,38.00
2022-12-12T12:50:28.063Z,33.58
2022-12-12T12:51:43.111Z,41.17
2022-12-12T12:53:02.862Z,36.30
2022-12-12T12:54:21.354Z,39.38
2022-12-12T12:55:30.109Z,35.85
2022-12-12T12:56:44.515Z,37.33
2022-12-12T12:57:50.753Z,37.72
2022-12-12T12:58:57.231Z,33.10
2022-12-12T13:00:10.441Z,32.20
2022-12-12T13:01:20.003Z,32.53
2022-12-12T13:02:47.778Z,33.38
2022-12-12T13:04:06.123Z,30.25
2022-12-12T13:05:45.964Z,35.33
2022-12-12T13:06:51.847Z,31.92
2022-12-12T13:08:13.347Z,32.28
2022-12-12T13:09:32.894Z,32.08
2022-12-12T13:10:38.172Z,35.38
2022-12-12T13:11:46.095Z,38.58
2022-12-12T13:12:57.255Z,40.13
2022-12-12T13:14:13.819Z,31.55
2022-12-12T13:15:35.336Z,34.83
2022-12-12T13:16:39.261Z,42.83
2022-12-12T13:17:49.103Z,35.97
2022-12-12T13:19:21.268Z,29.20
2022-12-12T13:20:26.428Z,36.47
2022-12-12T13:21:59.670Z,33.58
2022-12-12T13:23:38.558Z,30.20
2022-12-12T13:25:09.754Z,34.95
2022-12-12T13:27:26.560Z,31.40
2022-12-12T13:29:47.685Z,30.05
2022-12-12T13:31:08.098Z,34.10
2022-12-12T13:32:52.300Z,35.03
2022-12-12T13:34:07.256Z,35.08
2022-12-12T13:35:15.031Z,35.75
2022-12-12T13:36:29.063Z,37.20
2022-12-12T13:37:43.136Z,30.90
2022-12-12T13:38:53.217Z,38.80
2022-12-12T13:40:01.908Z,38.03
2022-12-12T13:41:06.902Z,34.25
2022-12-12T13:42:12.064Z,32.65
2022-12-12T13:43:49.868Z,38.97
2022-12-12T13:44:52.629Z,30.92
2022-12-12T13:45:55.726Z,41.13
2022-12-12T13:46:58.394Z,30.38
2022-12-12T13:48:04.790Z,37.10
2022-12-12T13:49:07.589Z,33.92
2022-12-12T13:50:10.162Z,42.47
2022-12-12T13:51:28.183Z,33.67
2022-12-12T13:52:42.481Z,38.85
2022-12-12T13:53:45.327Z,38.22
2022-12-12T13:54:49.077Z,40.53
2022-12-12T13:56:30.132Z,33.50
2022-12-12T13:57:33.135Z,40.13
2022-12-12T13:58:35.883Z,36.95
2022-12-12T13:59:53.664Z,35.40
2022-12-12T14:01:47.201Z,40.15
2022-12-12T14:03:08.109Z,30.52
2022-12-12T14:04:28.685Z,35.33
2022-12-12T14:05:44.891Z,36.08
2022-12-12T14:07:00.485Z,37.80
2022-12-12T14:08:11.844Z,34.75
2022-12-12T14:09:21.863Z,36.33
2022-12-12T14:10:31.456Z,35.63
2022-12-12T14:11:37.704Z,36.60
2022-12-12T14:12:40.934Z,36.28
2022-12-12T14:13:46.212Z,41.53
2022-12-12T14:15:18.632Z,42.72
2022-12-12T14:16:26.435Z,36.70
2022-12-12T14:17:38.231Z,42.13
2022-12-12T14:18:50.067Z,35.42
2022-12-12T14:19:55.460Z,35.05
2022-12-12T14:21:02.663Z,35.60
2022-12-12T14:22:05.551Z,37.13
2022-12-12T14:23:24.031Z,39.20
2022-12-12T14:24:32.546Z,36.38
2022-12-12T14:25:38.195Z,35.95
2022-12-12T14:26:40.834Z,43.50
2022-12-12T14:27:52.195Z,41.15
2022-12-12T14:29:16.367Z,49.70
2022-12-12T14:30:22.708Z,38.10
2022-12-12T14:31:33.384Z,48.47
2022-12-12T14:32:46.361Z,35.53
2022-12-12T14:33:58.741Z,36.47
2022-12-12T14:35:19.953Z,37.35
2022-12-12T14:36:54.896Z,39.90
2022-12-12T14:38:27.746Z,41.67
2022-12-12T14:39:42.517Z,33.45
2022-12-12T14:40:48.640Z,43.75
2022-12-12T14:41:54.165Z,38.60
2022-12-12T14:43:28.288Z,41.15
2022-12-12T14:44:36.207Z,39.78
2022-12-12T14:45:52.739Z,39.42
2022-12-12T14:46:58.500Z,39.50
2022-12-12T14:48:19.857Z,38.10
2022-12-12T14:49:22.983Z,40.25
2022-12-12T14:50:26.095Z,36.28
2022-12-12T14:51:33.896Z,38.25
2022-12-12T14:52:37.266Z,36.88
2022-12-12T14:53:44.342Z,44.63
2022-12-12T14:54:49.383Z,36.83
2022-12-12T14:55:58.629Z,41.00
2022-12-12T14:57:04.505Z,47.30